Wright Patterson Air Force Base
KFFO : now visible

Airfield :











YOU CAN JOIN US ON...

 
LOGIN :

Register | Disclaimer

   EN    FR    IT 

 









Legend :    VFR   Marginal VFR   IFR   Intensive IFR   Very Intensive IFR
Visi :
Ceiling :
>= 8 km
>= 3000ft
5 to 8 km
1000 to 3000 ft
1500m to 5 km
500 to 1000 ft
800 to 1500m
200 to 500 ft
< 800m
< 200 ft
Symbols :   Thunderstorms  Fog  Heavy snow  Heavy precipitations  Wind > 20 kt






- Airport Elevation : 823 ft


KFFO - Wright Patterson Air Force Base

CURRENT METAR :
  • 191756Z AUTO 35008KT 10SM CLR 03/M06 A3051 RMK AO2 SLP343 T00291065 10029 21032 50002

EXPIRED METARs :
  • 191656Z AUTO 33006KT 10SM CLR 02/M06 A3052 RMK AO2 SLP347 T00211062
  • 191556Z AUTO 34009KT 10SM CLR 01/M05 A3051 RMK AO2 SLP343 T00051055

TAF TAF KFFO
Valid from the 19 at 11:00 until the 20 at 17:00 UTC


191100Z 1911/2017 33009KT 9999 FEW025 QNH3041INS
TEMPO 1911/1913 8000 BR
BECMG 2002/2003 01009KT 9999 BKN100 QNH3048INS TX03/1920Z TNM04/2011Z



MET'MAP, your aeronautical weather chart ! - Copyright ORBIFLY December 2007 - Disclaimer

ORBIFLY MET'MAP TEAM :

Programming & Development : Alexandra Zaïnal
Concept & original design : Baudouin d'Aumeries
Assistance for programming : Marc-Olivier Méhu
Technical & hardware support : Manuel Goepfert

Contact : metmap@orbifly.com




SOURCES & CREDITS :

   NOAA       Earth
Advisory